首页
METAR-TAF:

METAR-TAF

机场 :

蒙特雷, 墨西哥

纬度: 25-47N, 经度: 100-06W, 海拔: 387米

当前天气观测

该预报发布于1小时和24分钟前的01:40 UTC
静风
温度 15°C
湿度 88%
气压 1013 hPa
能見度: 11.3公里
多云层高于7000英尺
多云层高于10000英尺

METAR: MMMY 230140Z 00000KT 7SM BKN070 BKN100 15/13 A2991 RMK 8/070 ISOL SC

时间: 21:04 (03:04 UTC)

预报

该预报发布于3小时和34分钟前的23:30 UTC
预报有效从23日的 00点(UTC)到 24日的 06点(UTC)
风速8节,风向北转西北
能見度: 10公里
多云层高于10000英尺
阴天层高于20000英尺
成为
从 23日的 02点(UTC)到 23日的 03点(UTC)
风速5节,风向
从 23日的 1000点(UTC)
风速节,风向
能見度: 8.0公里
多云层高于1000英尺
阴天层高于10000英尺
轻雾, 霾
短暂存在
从 23日的 11点(UTC)到 23日的 15点(UTC)
能見度: 3.2公里
多云层高于500英尺
阴天层高于1000英尺
轻雾, 霾
从 23日的 1700点(UTC)
风速10节,风向北转西北
能見度: 10公里
天空无云
成为
从 24日的 02点(UTC)到 24日的 03点(UTC)
风速6节,风向东转东北

TAF: MMMY 222330Z 2300/2406 34008KT P6SM BKN100 OVC200 TX24/2321Z TN13/2312Z BECMG 2302/2303 10005KT FM231000 00000KT 5SM BR HZ BKN010 OVC100 TEMPO 2311/2315 2SM BR HZ BKN005 OVC010 FM231700 33010KT P6SM SKC BECMG 2402/2403 06006KT

超过4000个机场的气象观测和天气预报(METAR&TAF报告)。

可查询的气象台以黄色和红色小点在地图上表示。

将鼠标移到小点上方,可查看气象台名称。

然后点击查看天气观测和预报。

如需切换地图:点击带黑十字的绿色按钮放大地图;点击带横线的绿色按钮缩小地图;或者点击绿色箭头查看邻近地区的地图。


METAR-TAF: